Estación de San Javier

Ultimos registro cada 15 minutos 51
Estación Fecha / Hora Temperatura Humedad Lluvia Velocidad Dirección Radiación Presion
51 San Javier 10-05-2026 12:30 13,9 66 0 0,4 40 547 1015,6
50 San Javier 10-05-2026 12:15 13,3 69 0 0,9 123 541 1015,7
49 San Javier 10-05-2026 12:00 12,8 70 0 0,9 5 534 1016,1
48 San Javier 10-05-2026 11:45 12,4 71 0 0,4 28 526 1016,4
47 San Javier 10-05-2026 11:30 11,9 69 0 0 115 508 1016,6
46 San Javier 10-05-2026 11:15 11,4 72 0 0,4 347 492 1016,7
45 San Javier 10-05-2026 11:00 11 73 0 0,9 123 469 1016,8
44 San Javier 10-05-2026 10:45 10,6 75 0 0,4 25 445 1016,9
43 San Javier 10-05-2026 10:30 10,1 75 0 0,4 346 420 1017
42 San Javier 10-05-2026 10:15 10,2 77 0 0 51 390 1017,3
41 San Javier 10-05-2026 10:00 9,5 79 0 0,4 9 357 1017,3
40 San Javier 10-05-2026 09:45 8,9 81 0 1,3 355 323 1017,3
39 San Javier 10-05-2026 09:30 8 84 0 0,4 44 285 1017,2
38 San Javier 10-05-2026 09:15 7,1 88 0 0,9 9 241 1017,3
37 San Javier 10-05-2026 09:00 6,3 92 0 0 24 195 1017,3
36 San Javier 10-05-2026 08:45 5,3 95 0 0 355 153 1017,2
35 San Javier 10-05-2026 08:30 4,1 95 0 0 355 109 1017,1
34 San Javier 10-05-2026 08:15 2,6 95 0 0 355 18 1016,8
33 San Javier 10-05-2026 08:00 1,5 94 0 0 355 30 1017
32 San Javier 10-05-2026 07:45 1,1 92 0 0 355 9 1016,9
31 San Javier 10-05-2026 07:30 1,4 91 0 0 355 0 1016,7
30 San Javier 10-05-2026 07:15 1,8 91 0 0 355 0 1016,7
29 San Javier 10-05-2026 07:00 2,3 92 0 0 355 0 1016,7
28 San Javier 10-05-2026 06:45 2,7 92 0 0 355 0 1016,8
27 San Javier 10-05-2026 06:30 2,9 93 0 0 355 0 1016,8
26 San Javier 10-05-2026 06:15 2,8 93 0 0 355 0 1016,7
25 San Javier 10-05-2026 06:00 2,7 93 0 0 355 0 1016,7
24 San Javier 10-05-2026 05:45 2,6 91 0 0 355 0 1016,7
23 San Javier 10-05-2026 05:30 2,9 91 0 0 355 0 1016,5
22 San Javier 10-05-2026 05:15 2,9 92 0 0 355 0 1016,6
21 San Javier 10-05-2026 05:00 2,9 92 0 0 355 0 1016,4
20 San Javier 10-05-2026 04:45 3,1 90 0 0 355 0 1016,4
19 San Javier 10-05-2026 04:30 3,4 90 0 0 355 0 1016,4
18 San Javier 10-05-2026 04:15 3,7 90 0 0 355 0 1016,5
17 San Javier 10-05-2026 04:00 3,9 91 0 0 355 0 1016,4
16 San Javier 10-05-2026 03:45 4,1 88 0 0 22 0 1016,4
15 San Javier 10-05-2026 03:30 4,6 86 0 0 22 0 1016,7
14 San Javier 10-05-2026 03:15 5,1 87 0 0 22 0 1016,7
13 San Javier 10-05-2026 03:00 5,4 86 0 0 22 0 1016,5
12 San Javier 10-05-2026 02:45 5,8 86 0 0 22 0 1016,4
11 San Javier 10-05-2026 02:30 6,1 85 0 0 22 0 1016,6
10 San Javier 10-05-2026 02:15 6,3 85 0 0 41 0 1016,8
9 San Javier 10-05-2026 02:00 6,8 83 0 0 23 0 1016,9
8 San Javier 10-05-2026 01:45 7,3 82 0 0 23 0 1017,1
7 San Javier 10-05-2026 01:30 7,7 81 0 0 18 0 1017
6 San Javier 10-05-2026 01:15 7,9 81 0 0,9 9 0 1017,1
5 San Javier 10-05-2026 01:00 8,1 81 0 0,9 355 0 1017,1
4 San Javier 10-05-2026 00:45 8,2 82 0 0,4 12 0 1017,1
3 San Javier 10-05-2026 00:30 8,2 82 0 0,9 355 0 1017,2
2 San Javier 10-05-2026 00:15 8,3 82 0 0,9 9 0 1017,4
1 San Javier 10-05-2026 00:00 8,3 82 0 0,9 360 0 1017,5